createdAt,value
2019-02-20T00:01:54.161Z,10.00
2019-02-20T00:04:23.848Z,10.00
2019-02-20T00:06:53.515Z,10.00
2019-02-20T00:09:25.073Z,10.00
2019-02-20T00:11:54.629Z,10.00
2019-02-20T00:14:25.001Z,9.90
2019-02-20T00:16:54.714Z,9.90
2019-02-20T00:19:24.986Z,9.90
2019-02-20T00:21:54.687Z,10.00
2019-02-20T00:24:24.190Z,10.10
2019-02-20T00:26:53.862Z,9.90
2019-02-20T00:29:24.067Z,10.00
2019-02-20T00:31:54.004Z,9.90
2019-02-20T00:34:24.252Z,9.80
2019-02-20T00:36:56.687Z,9.70
2019-02-20T00:39:30.687Z,9.60
2019-02-20T00:42:00.467Z,9.40
2019-02-20T00:44:58.208Z,9.40
2019-02-20T00:47:58.744Z,9.30
2019-02-20T00:50:30.110Z,9.20
2019-02-20T00:53:05.503Z,9.20
2019-02-20T00:55:35.153Z,9.10
2019-02-20T00:58:05.615Z,9.00
2019-02-20T01:00:35.211Z,8.90
2019-02-20T01:03:05.672Z,9.10
2019-02-20T01:05:35.258Z,9.10
2019-02-20T01:08:06.508Z,9.00
2019-02-20T01:10:36.124Z,9.00
2019-02-20T01:13:08.407Z,8.90
2019-02-20T01:15:37.974Z,8.90
2019-02-20T01:18:07.823Z,8.90
2019-02-20T01:20:37.384Z,8.90
2019-02-20T01:23:08.418Z,8.90
2019-02-20T01:25:38.040Z,8.80
2019-02-20T01:28:09.366Z,8.80
2019-02-20T01:30:39.002Z,8.90
2019-02-20T01:33:10.776Z,8.90
2019-02-20T01:35:40.327Z,9.00
2019-02-20T01:38:10.996Z,9.00
2019-02-20T01:40:40.651Z,9.00
2019-02-20T01:43:12.489Z,8.90
2019-02-20T01:45:42.289Z,9.00
2019-02-20T01:48:11.922Z,9.00
2019-02-20T01:50:41.488Z,9.10
2019-02-20T01:53:12.039Z,9.10
2019-02-20T01:55:41.619Z,9.00
2019-02-20T01:58:12.293Z,9.00
2019-02-20T02:00:41.994Z,9.00
2019-02-20T02:03:12.776Z,9.10
2019-02-20T02:05:42.336Z,9.00
2019-02-20T02:08:12.841Z,9.10
2019-02-20T02:10:42.455Z,9.00
2019-02-20T02:13:12.767Z,9.10
2019-02-20T02:15:42.375Z,9.10
2019-02-20T02:18:12.846Z,9.00
2019-02-20T02:20:42.406Z,9.10
2019-02-20T02:23:19.806Z,9.10
2019-02-20T02:25:45.245Z,9.10
2019-02-20T02:28:14.928Z,9.00
2019-02-20T02:30:44.596Z,8.80
2019-02-20T02:33:15.011Z,8.80
2019-02-20T02:35:44.654Z,9.00
2019-02-20T02:38:15.137Z,9.00
2019-02-20T02:40:44.730Z,9.00
2019-02-20T02:43:15.100Z,9.00
2019-02-20T02:45:44.709Z,9.10
2019-02-20T02:48:14.921Z,9.00
2019-02-20T02:50:44.912Z,9.10
2019-02-20T02:53:15.196Z,9.10
2019-02-20T02:55:45.023Z,9.00
2019-02-20T02:58:15.161Z,8.90
2019-02-20T03:00:44.868Z,8.90
2019-02-20T03:03:15.154Z,8.90
2019-02-20T03:05:45.262Z,8.90
2019-02-20T03:08:15.580Z,9.00
2019-02-20T03:10:45.338Z,8.90
2019-02-20T03:13:15.659Z,8.90
2019-02-20T03:15:45.365Z,9.00
2019-02-20T03:18:15.673Z,9.00
2019-02-20T03:20:45.377Z,9.00
2019-02-20T03:23:15.029Z,9.00
2019-02-20T03:25:44.707Z,8.90
2019-02-20T03:28:15.012Z,8.90
2019-02-20T03:30:44.632Z,8.70
2019-02-20T03:33:14.992Z,8.80
2019-02-20T03:35:44.715Z,8.80
2019-02-20T03:38:14.990Z,8.90
2019-02-20T03:40:44.693Z,9.00
2019-02-20T03:43:15.072Z,9.00
2019-02-20T03:45:44.727Z,8.90
2019-02-20T03:48:15.014Z,8.80
2019-02-20T03:50:44.996Z,8.80
2019-02-20T03:53:15.313Z,8.80
2019-02-20T03:55:44.982Z,8.80
2019-02-20T03:58:15.540Z,8.80
2019-02-20T04:00:45.247Z,8.90
2019-02-20T04:03:15.570Z,9.00
2019-02-20T04:05:45.315Z,9.10
2019-02-20T04:08:15.631Z,9.00
2019-02-20T04:10:45.325Z,9.00
2019-02-20T04:13:14.898Z,9.10
2019-02-20T04:15:44.548Z,9.00
2019-02-20T04:18:14.880Z,9.00
2019-02-20T04:20:44.600Z,8.90
2019-02-20T04:23:14.918Z,8.90
2019-02-20T04:25:44.608Z,9.00
2019-02-20T04:28:14.968Z,9.00
2019-02-20T04:30:44.640Z,8.90
2019-02-20T04:33:15.008Z,8.90
2019-02-20T04:35:44.697Z,9.00
2019-02-20T04:38:15.007Z,8.90
2019-02-20T04:40:44.735Z,8.90
2019-02-20T04:43:14.323Z,8.90
2019-02-20T04:45:44.019Z,8.90
2019-02-20T04:48:13.659Z,8.90
2019-02-20T04:50:43.484Z,8.90
2019-02-20T04:53:13.897Z,8.90
2019-02-20T04:55:43.981Z,9.00
2019-02-20T04:58:24.261Z,9.00
2019-02-20T05:00:53.954Z,9.00
2019-02-20T05:03:24.317Z,9.00
2019-02-20T05:05:54.020Z,9.00
2019-02-20T05:08:24.311Z,9.10
2019-02-20T05:10:54.017Z,9.00
2019-02-20T05:13:24.350Z,9.00
2019-02-20T05:15:54.912Z,9.00
2019-02-20T05:18:25.346Z,9.00
2019-02-20T05:20:54.983Z,9.00
2019-02-20T05:23:25.484Z,9.00
2019-02-20T05:25:55.071Z,9.00
2019-02-20T05:28:25.554Z,9.00
2019-02-20T05:30:55.187Z,9.00
2019-02-20T05:33:25.095Z,9.00
2019-02-20T05:35:55.720Z,9.00
2019-02-20T05:38:26.758Z,9.00
2019-02-20T05:40:56.397Z,9.00
2019-02-20T05:43:28.347Z,9.10
2019-02-20T05:45:58.332Z,9.10
2019-02-20T05:48:30.113Z,9.00
2019-02-20T05:50:59.673Z,9.10
2019-02-20T05:53:30.087Z,9.10
2019-02-20T05:55:59.674Z,9.10
2019-02-20T05:58:31.442Z,9.10
2019-02-20T06:01:01.464Z,9.00
2019-02-20T06:03:31.690Z,9.00
2019-02-20T06:06:01.648Z,9.00
2019-02-20T06:08:32.127Z,9.10
2019-02-20T06:11:01.810Z,9.10
2019-02-20T06:13:32.693Z,9.00
2019-02-20T06:16:02.247Z,9.10
2019-02-20T06:18:32.785Z,9.00
2019-02-20T06:21:03.487Z,9.00
2019-02-20T06:23:35.045Z,9.10
2019-02-20T06:26:04.821Z,9.10
2019-02-20T06:28:35.517Z,9.10
2019-02-20T06:31:06.251Z,9.10
2019-02-20T06:33:36.766Z,9.10
2019-02-20T06:36:06.423Z,9.10
2019-02-20T06:38:36.839Z,9.10
2019-02-20T06:41:06.476Z,9.00
2019-02-20T06:43:37.256Z,9.00
2019-02-20T06:46:07.001Z,9.00
2019-02-20T06:48:37.491Z,9.00
2019-02-20T06:51:07.238Z,9.00
2019-02-20T06:53:37.772Z,9.00
2019-02-20T06:56:07.438Z,8.90
2019-02-20T06:58:37.968Z,9.00
2019-02-20T07:01:07.647Z,9.00
2019-02-20T07:03:37.409Z,9.10
2019-02-20T07:06:43.200Z,9.10
2019-02-20T07:09:49.451Z,9.10
2019-02-20T07:12:52.299Z,9.20
2019-02-20T07:15:59.175Z,9.10
2019-02-20T07:18:59.544Z,9.20
2019-02-20T07:22:13.187Z,9.20
2019-02-20T07:25:14.061Z,9.30
2019-02-20T07:28:27.271Z,9.30
2019-02-20T07:30:56.927Z,9.40
2019-02-20T07:33:26.942Z,9.40
2019-02-20T07:35:56.839Z,9.50
2019-02-20T07:38:26.490Z,9.50
2019-02-20T07:40:56.147Z,9.70
2019-02-20T07:43:27.021Z,9.70
2019-02-20T07:45:56.574Z,9.80
2019-02-20T07:48:26.975Z,9.90
2019-02-20T07:50:56.645Z,9.90
2019-02-20T07:53:27.087Z,10.10
2019-02-20T07:55:56.791Z,10.10
2019-02-20T07:58:27.476Z,10.30
2019-02-20T08:00:57.079Z,10.40
2019-02-20T08:03:29.543Z,10.50
2019-02-20T08:05:59.965Z,10.80
2019-02-20T08:08:31.279Z,11.10
2019-02-20T08:11:01.046Z,11.30
2019-02-20T08:13:39.109Z,11.60
2019-02-20T08:16:02.805Z,11.80
2019-02-20T08:18:33.291Z,12.00
2019-02-20T08:21:03.019Z,12.40
2019-02-20T08:23:32.827Z,12.60
2019-02-20T08:26:02.780Z,12.60
2019-02-20T08:28:34.121Z,12.80
2019-02-20T08:31:03.833Z,12.80
2019-02-20T08:33:34.218Z,12.70
2019-02-20T08:36:04.175Z,12.70
2019-02-20T08:38:34.687Z,13.00
2019-02-20T08:41:04.387Z,13.10
2019-02-20T08:43:34.496Z,13.20
2019-02-20T08:46:04.553Z,13.20
2019-02-20T08:48:34.169Z,13.30
2019-02-20T08:51:04.975Z,13.40
2019-02-20T08:53:34.973Z,13.80
2019-02-20T08:56:04.702Z,14.30
2019-02-20T08:58:35.103Z,14.50
2019-02-20T09:01:05.067Z,14.50
2019-02-20T09:03:34.761Z,14.50
2019-02-20T09:06:05.621Z,14.50
2019-02-20T09:08:35.931Z,14.40
2019-02-20T09:11:05.643Z,14.20
2019-02-20T09:13:36.013Z,14.00
2019-02-20T09:16:05.822Z,13.80
2019-02-20T09:18:35.447Z,13.60
2019-02-20T09:21:05.200Z,13.30
2019-02-20T09:23:35.531Z,13.30
2019-02-20T09:26:05.236Z,13.20
2019-02-20T09:28:37.189Z,13.30
2019-02-20T09:31:07.125Z,13.50
2019-02-20T09:33:36.757Z,13.50
2019-02-20T09:36:06.609Z,13.70
2019-02-20T09:38:36.320Z,14.00
2019-02-20T09:41:05.986Z,14.20
2019-02-20T09:43:36.268Z,14.40
2019-02-20T09:46:06.093Z,14.30
2019-02-20T09:48:36.423Z,14.30
2019-02-20T09:51:06.215Z,14.40
2019-02-20T09:53:36.608Z,14.50
2019-02-20T09:56:06.394Z,14.50
2019-02-20T09:58:36.954Z,14.60
2019-02-20T10:01:06.752Z,14.50
2019-02-20T10:03:37.133Z,14.30
2019-02-20T10:06:06.802Z,14.20
2019-02-20T10:08:37.128Z,13.90
2019-02-20T10:11:06.919Z,14.00
2019-02-20T10:13:37.340Z,13.90
2019-02-20T10:16:07.348Z,14.00
2019-02-20T10:18:37.912Z,14.00
2019-02-20T10:21:07.651Z,14.00
2019-02-20T10:23:38.042Z,14.00
2019-02-20T10:26:08.188Z,14.20
2019-02-20T10:28:38.460Z,14.20
2019-02-20T10:31:08.340Z,14.30
2019-02-20T10:33:38.723Z,14.60
2019-02-20T10:36:08.475Z,14.70
2019-02-20T10:38:38.863Z,14.70
2019-02-20T10:41:10.387Z,14.80
2019-02-20T10:43:41.051Z,14.90
2019-02-20T10:46:10.787Z,15.00
2019-02-20T10:48:41.155Z,15.10
2019-02-20T10:51:11.645Z,15.30
2019-02-20T10:53:41.295Z,15.50
2019-02-20T10:56:11.056Z,15.60
2019-02-20T10:58:41.606Z,16.00
2019-02-20T11:01:11.345Z,16.80
2019-02-20T11:03:41.052Z,17.80
2019-02-20T11:06:10.897Z,18.90
2019-02-20T11:08:41.347Z,18.70
2019-02-20T11:11:11.184Z,19.00
2019-02-20T11:13:41.605Z,19.30
2019-02-20T11:16:12.033Z,19.60
2019-02-20T11:18:42.568Z,19.40
2019-02-20T11:21:12.219Z,18.60
2019-02-20T11:23:42.691Z,17.70
2019-02-20T11:26:18.333Z,17.40
2019-02-20T11:28:43.910Z,17.10
2019-02-20T11:31:13.637Z,16.70
2019-02-20T11:33:43.664Z,16.60
2019-02-20T11:36:13.400Z,16.60
2019-02-20T11:38:43.887Z,16.40
2019-02-20T11:41:14.010Z,15.90
2019-02-20T11:43:44.558Z,15.60
2019-02-20T11:46:14.316Z,15.20
2019-02-20T11:48:44.127Z,14.80
2019-02-20T11:51:13.811Z,14.50
2019-02-20T11:53:46.096Z,14.30
2019-02-20T11:56:15.887Z,14.20
2019-02-20T11:58:47.127Z,14.10
2019-02-20T12:01:16.875Z,13.90
2019-02-20T12:03:46.754Z,13.70
2019-02-20T12:06:16.560Z,13.80
2019-02-20T12:08:46.684Z,13.70
2019-02-20T12:11:16.694Z,13.50
2019-02-20T12:13:46.513Z,13.40
2019-02-20T12:16:16.230Z,13.30
2019-02-20T12:18:46.037Z,13.20
2019-02-20T12:21:15.726Z,13.40
2019-02-20T12:23:46.214Z,13.50
2019-02-20T12:26:15.946Z,13.50
2019-02-20T12:28:47.224Z,13.30
2019-02-20T12:31:16.959Z,13.30
2019-02-20T12:33:47.482Z,13.20
2019-02-20T12:36:17.187Z,13.30
2019-02-20T12:38:47.745Z,13.30
2019-02-20T12:41:18.921Z,13.30
2019-02-20T12:43:48.567Z,13.40
2019-02-20T12:46:18.336Z,13.40
2019-02-20T12:48:48.949Z,13.30
2019-02-20T12:51:18.824Z,13.30
2019-02-20T12:53:49.211Z,13.10
2019-02-20T12:56:18.964Z,13.20
2019-02-20T12:58:49.584Z,13.10
2019-02-20T13:01:19.480Z,13.10
2019-02-20T13:03:49.711Z,13.30
2019-02-20T13:06:19.524Z,13.30
2019-02-20T13:08:51.181Z,13.50
2019-02-20T13:11:21.295Z,13.60
2019-02-20T13:13:51.734Z,13.60
2019-02-20T13:16:21.543Z,13.70
2019-02-20T13:18:51.940Z,13.80
2019-02-20T13:21:21.707Z,13.80
2019-02-20T13:23:52.412Z,13.90
2019-02-20T13:26:22.124Z,13.90
2019-02-20T13:28:52.546Z,13.80
2019-02-20T13:31:22.381Z,13.70
2019-02-20T13:33:52.655Z,13.80
2019-02-20T13:36:22.311Z,13.90
2019-02-20T13:38:52.073Z,13.80
2019-02-20T13:41:21.821Z,13.90
2019-02-20T13:43:51.527Z,13.90
2019-02-20T13:46:21.169Z,13.80
2019-02-20T13:48:51.602Z,13.80
2019-02-20T13:51:21.281Z,13.80
2019-02-20T13:53:51.874Z,13.80
2019-02-20T13:56:21.438Z,13.60
2019-02-20T13:58:52.050Z,13.70
2019-02-20T14:01:21.716Z,13.60
2019-02-20T14:03:53.188Z,13.60
2019-02-20T14:06:23.020Z,13.50
2019-02-20T14:08:53.456Z,13.40
2019-02-20T14:11:23.118Z,13.40
2019-02-20T14:13:53.212Z,13.30
2019-02-20T14:16:22.781Z,13.20
2019-02-20T14:18:52.473Z,13.30
2019-02-20T14:21:22.357Z,13.20
2019-02-20T14:23:52.918Z,13.10
2019-02-20T14:26:22.552Z,13.10
2019-02-20T14:28:52.222Z,13.00
2019-02-20T14:31:21.938Z,13.00
2019-02-20T14:33:51.761Z,13.10
2019-02-20T14:36:21.376Z,13.00
2019-02-20T14:38:51.396Z,13.10
2019-02-20T14:41:21.496Z,13.10
2019-02-20T14:43:51.023Z,13.10
2019-02-20T14:46:20.833Z,13.10
2019-02-20T14:48:51.227Z,13.00
2019-02-20T14:51:21.111Z,13.10
2019-02-20T14:53:51.596Z,13.10
2019-02-20T14:56:21.265Z,13.10
2019-02-20T14:58:51.769Z,13.00
2019-02-20T15:01:21.795Z,13.10
2019-02-20T15:03:51.969Z,13.00
2019-02-20T15:06:21.793Z,13.00
2019-02-20T15:08:52.451Z,12.90
2019-02-20T15:11:22.172Z,12.70
2019-02-20T15:13:53.642Z,12.70
2019-02-20T15:16:23.284Z,12.70
2019-02-20T15:18:52.994Z,12.60
2019-02-20T15:21:22.719Z,12.70
2019-02-20T15:23:53.187Z,12.70
2019-02-20T15:26:22.829Z,12.60
2019-02-20T15:28:54.774Z,12.60
2019-02-20T15:31:33.224Z,12.50
2019-02-20T15:33:56.877Z,12.40
2019-02-20T15:36:26.751Z,12.30
2019-02-20T15:38:57.170Z,12.20
2019-02-20T15:41:26.736Z,12.30
2019-02-20T15:43:57.204Z,12.30
2019-02-20T15:46:26.971Z,12.20
2019-02-20T15:48:56.801Z,12.10
2019-02-20T15:51:28.307Z,12.00
2019-02-20T15:53:58.845Z,11.90
2019-02-20T15:56:28.562Z,11.80
2019-02-20T15:58:58.604Z,11.80
2019-02-20T16:01:28.253Z,11.90
2019-02-20T16:03:58.497Z,11.80
2019-02-20T16:06:28.230Z,11.80
2019-02-20T16:08:58.567Z,11.80
2019-02-20T16:11:28.216Z,11.70
2019-02-20T16:13:58.507Z,11.70
2019-02-20T16:16:28.336Z,11.70
2019-02-20T16:18:58.467Z,11.70
2019-02-20T16:21:29.571Z,11.60
2019-02-20T16:24:00.004Z,11.60
2019-02-20T16:26:29.651Z,11.70
2019-02-20T16:28:59.327Z,11.70
2019-02-20T16:31:28.975Z,11.60
2019-02-20T16:33:59.557Z,11.60
2019-02-20T16:36:29.302Z,11.70
2019-02-20T16:39:00.680Z,11.70
2019-02-20T16:41:30.545Z,11.60
2019-02-20T16:44:00.134Z,11.60
2019-02-20T16:46:30.668Z,11.60
2019-02-20T16:49:00.649Z,11.70
2019-02-20T16:51:30.555Z,11.60
2019-02-20T16:54:00.786Z,11.60
2019-02-20T16:56:30.532Z,11.70
2019-02-20T16:59:00.860Z,11.60
2019-02-20T17:01:30.616Z,11.60
2019-02-20T17:04:01.157Z,11.50
2019-02-20T17:06:30.980Z,11.50
2019-02-20T17:09:00.843Z,11.50
2019-02-20T17:11:31.259Z,11.50
2019-02-20T17:14:01.830Z,11.40
2019-02-20T17:16:31.693Z,11.40
2019-02-20T17:19:01.885Z,11.40
2019-02-20T17:21:32.717Z,11.40
2019-02-20T17:24:04.578Z,11.40
2019-02-20T17:26:34.773Z,11.20
2019-02-20T17:29:05.149Z,11.20
2019-02-20T17:31:34.958Z,11.20
2019-02-20T17:34:04.899Z,11.20
2019-02-20T17:36:34.648Z,11.10
2019-02-20T17:39:07.255Z,11.10
2019-02-20T17:41:36.792Z,11.00
2019-02-20T17:44:06.475Z,11.00
2019-02-20T17:46:36.612Z,11.00
2019-02-20T17:49:06.473Z,11.00
2019-02-20T17:51:36.606Z,11.00
2019-02-20T17:54:06.756Z,11.00
2019-02-20T17:56:36.668Z,11.00
2019-02-20T17:59:07.592Z,11.00
2019-02-20T18:01:37.305Z,11.00
2019-02-20T18:04:07.647Z,11.00
2019-02-20T18:06:37.660Z,11.10
2019-02-20T18:09:10.373Z,11.00
2019-02-20T18:11:40.305Z,11.10
2019-02-20T18:14:10.092Z,11.10
2019-02-20T18:16:40.694Z,11.10
2019-02-20T18:19:10.683Z,11.00
2019-02-20T18:21:40.519Z,11.10
2019-02-20T18:24:10.347Z,11.00
2019-02-20T18:26:40.156Z,11.00
2019-02-20T18:29:10.963Z,11.10
2019-02-20T18:31:40.775Z,11.00
2019-02-20T18:34:11.348Z,11.10
2019-02-20T18:36:41.120Z,11.00
2019-02-20T18:39:10.879Z,10.90
2019-02-20T18:41:40.580Z,10.80
2019-02-20T18:44:10.446Z,10.80
2019-02-20T18:46:40.112Z,10.90
2019-02-20T18:49:10.103Z,10.90
2019-02-20T18:51:40.181Z,10.90
2019-02-20T18:54:10.092Z,10.90
2019-02-20T18:56:39.845Z,10.90
2019-02-20T18:59:09.543Z,10.90
2019-02-20T19:01:39.471Z,10.80
2019-02-20T19:04:09.499Z,10.80
2019-02-20T19:06:39.222Z,10.80
2019-02-20T19:09:16.652Z,10.60
2019-02-20T19:12:48.228Z,10.60
2019-02-20T19:15:49.118Z,10.50
2019-02-20T19:19:10.090Z,10.60
2019-02-20T19:22:33.068Z,10.50
2019-02-20T19:25:41.722Z,10.50
2019-02-20T19:28:44.092Z,10.50
2019-02-20T19:31:51.047Z,10.40
2019-02-20T19:35:14.318Z,10.40
2019-02-20T19:38:27.199Z,10.50
2019-02-20T19:41:22.458Z,10.40
2019-02-20T19:44:55.234Z,10.40
2019-02-20T19:47:46.439Z,10.40
2019-02-20T19:50:33.205Z,10.20
2019-02-20T19:53:37.671Z,10.20
2019-02-20T19:56:34.103Z,10.20
2019-02-20T19:59:52.901Z,10.10
2019-02-20T20:02:48.725Z,10.10
2019-02-20T20:06:23.984Z,10.00
2019-02-20T20:09:19.791Z,9.80
2019-02-20T20:12:16.884Z,9.80
2019-02-20T20:15:27.377Z,9.80
2019-02-20T20:18:32.511Z,9.70
2019-02-20T20:21:35.807Z,9.60
2019-02-20T20:24:52.625Z,9.60
2019-02-20T20:27:56.711Z,9.60
2019-02-20T20:30:54.268Z,9.40
2019-02-20T20:39:04.994Z,9.30
2019-02-20T20:42:10.746Z,9.30
2019-02-20T20:50:40.602Z,9.20
2019-02-20T20:53:28.187Z,9.20
2019-02-20T20:56:24.199Z,9.20
2019-02-20T20:59:02.293Z,9.10
2019-02-20T21:01:45.523Z,9.10
2019-02-20T21:04:57.551Z,9.10
2019-02-20T21:07:51.048Z,9.10
2019-02-20T21:10:46.496Z,9.10
2019-02-20T21:14:07.180Z,9.10
2019-02-20T21:17:08.205Z,9.10
2019-02-20T21:20:09.523Z,9.00
2019-02-20T21:23:20.605Z,9.00
2019-02-20T21:26:22.581Z,8.90
2019-02-20T21:29:28.109Z,8.90
2019-02-20T21:32:23.182Z,8.80
2019-02-20T21:35:18.798Z,8.80
2019-02-20T21:38:30.357Z,8.80
2019-02-20T21:41:42.504Z,8.70
2019-02-20T21:44:38.072Z,8.70
2019-02-20T21:47:33.279Z,8.70
2019-02-20T21:50:31.663Z,8.70
2019-02-20T21:53:38.807Z,8.80
2019-02-20T21:56:47.952Z,8.80
2019-02-20T22:00:03.059Z,8.80
2019-02-20T22:03:17.172Z,8.90
2019-02-20T22:06:30.670Z,8.80
2019-02-20T22:09:41.138Z,8.80
2019-02-20T22:12:50.948Z,8.80
2019-02-20T22:15:39.777Z,8.70
2019-02-20T22:18:37.867Z,8.70
2019-02-20T22:21:35.332Z,8.70
2019-02-20T22:24:25.775Z,8.70
2019-02-20T22:27:45.371Z,8.70
2019-02-20T22:30:57.155Z,8.50
2019-02-20T22:33:54.402Z,8.50
2019-02-20T22:37:13.975Z,8.50
2019-02-20T22:40:14.849Z,8.50
2019-02-20T22:43:35.802Z,8.60
2019-02-20T22:47:04.167Z,8.60
2019-02-20T22:49:58.147Z,8.50
2019-02-20T22:52:51.658Z,8.50
2019-02-20T22:56:08.428Z,8.50
2019-02-20T22:58:53.707Z,8.60
2019-02-20T23:02:03.397Z,8.50
2019-02-20T23:04:49.276Z,8.50
2019-02-20T23:08:02.553Z,8.50
2019-02-20T23:11:00.565Z,8.50
2019-02-20T23:13:55.623Z,8.40
2019-02-20T23:16:25.191Z,8.40
2019-02-20T23:18:54.694Z,8.30
2019-02-20T23:21:24.270Z,8.30
2019-02-20T23:23:54.209Z,8.30
2019-02-20T23:26:23.712Z,8.40
2019-02-20T23:28:53.327Z,8.30
2019-02-20T23:31:22.832Z,8.30
2019-02-20T23:33:52.462Z,8.30
2019-02-20T23:36:21.880Z,8.20
2019-02-20T23:38:51.447Z,8.20
2019-02-20T23:41:20.969Z,8.30
2019-02-20T23:43:50.581Z,8.40
2019-02-20T23:46:20.132Z,8.40
2019-02-20T23:48:49.686Z,8.40
2019-02-20T23:51:19.195Z,8.40
2019-02-20T23:53:48.836Z,8.40
2019-02-20T23:56:18.357Z,8.40
2019-02-20T23:58:47.986Z,8.40
